Time;durP1;ratioP1;P1;durP2;ratioP2;P2;SDS_P1;SDS_P2;PMS_P1;PMS_P2;Temp;Humidity;BMP_temperature;BMP_pressure;BME280_temperature;BME280_humidity;BME280_pressure;Samples;Min_cycle;Max_cycle;Signal;HPM_P1;HPM_P2
2020/12/19 00:01:36;;;;;;;19.10;8.10;;;10.50;67.40;;;;;;6258008;28;20087;-71
2020/12/19 00:04:37;;;;;;;19.05;8.20;;;10.50;67.40;;;;;;6242202;28;20041;-71
2020/12/19 00:07:38;;;;;;;19.92;8.27;;;10.50;67.20;;;;;;6256242;28;20124;-71
2020/12/19 00:10:38;;;;;;;16.02;7.93;;;10.50;67.00;;;;;;6258283;28;20053;-71
2020/12/19 00:13:40;;;;;;;14.82;6.93;;;10.50;67.00;;;;;;6263505;28;20052;-71
2020/12/19 00:16:40;;;;;;;18.50;7.85;;;10.40;67.00;;;;;;6264881;28;20033;-71
2020/12/19 00:19:41;;;;;;;19.05;8.45;;;10.40;67.20;;;;;;6260243;28;20033;-71
2020/12/19 00:22:44;;;;;;;18.90;8.15;;;10.30;67.30;;;;;;6245210;28;20055;-72
2020/12/19 00:25:45;;;;;;;17.95;7.90;;;10.20;67.30;;;;;;6262303;28;20528;-71
2020/12/19 00:28:46;;;;;;;22.23;8.98;;;10.20;67.40;;;;;;6255228;28;20069;-72
2020/12/19 00:31:47;;;;;;;21.58;7.90;;;10.20;67.60;;;;;;6264945;28;20455;-71
2020/12/19 00:34:48;;;;;;;22.10;8.43;;;10.20;67.60;;;;;;6260707;28;20044;-71
2020/12/19 00:37:50;;;;;;;15.02;7.32;;;10.20;67.70;;;;;;6261632;28;20114;-71
2020/12/19 00:40:51;;;;;;;12.75;6.90;;;10.20;67.50;;;;;;6257463;28;20033;-71
2020/12/19 00:43:52;;;;;;;15.82;6.80;;;10.20;67.40;;;;;;6262047;28;20055;-70
2020/12/19 00:46:53;;;;;;;21.33;7.72;;;10.20;67.20;;;;;;6264092;28;20045;-71
2020/12/19 00:49:54;;;;;;;16.45;6.80;;;10.10;67.20;;;;;;6264561;28;20033;-71
2020/12/19 00:52:55;;;;;;;20.38;6.95;;;10.10;67.30;;;;;;6263086;28;20029;-71
2020/12/19 00:55:56;;;;;;;18.42;7.30;;;10.10;67.40;;;;;;6258083;28;20037;-71
2020/12/19 00:58:57;;;;;;;14.52;6.85;;;10.00;67.50;;;;;;6243244;28;20457;-70
2020/12/19 01:01:58;;;;;;;18.52;7.82;;;10.00;67.50;;;;;;6259474;28;20034;-73
2020/12/19 01:04:59;;;;;;;21.15;7.75;;;10.00;67.50;;;;;;6261498;28;20755;-71
2020/12/19 01:08:00;;;;;;;15.25;7.10;;;10.10;67.30;;;;;;6262226;28;20045;-71
2020/12/19 01:11:01;;;;;;;15.07;7.00;;;10.10;67.20;;;;;;6239705;28;20034;-71
2020/12/19 01:14:03;;;;;;;18.00;8.00;;;10.10;67.20;;;;;;6231120;28;20368;-71
2020/12/19 01:17:05;;;;;;;18.27;7.82;;;10.10;67.10;;;;;;6241324;28;20375;-71
2020/12/19 01:20:06;;;;;;;11.68;6.20;;;10.20;67.10;;;;;;6239660;28;20455;-71
2020/12/19 01:23:06;;;;;;;16.63;6.93;;;10.20;66.90;;;;;;6240884;28;20037;-71
2020/12/19 01:26:08;;;;;;;24.40;8.30;;;10.20;66.90;;;;;;6259050;28;20459;-71
2020/12/19 01:29:09;;;;;;;14.38;7.07;;;10.30;66.80;;;;;;6244465;28;20029;-71
2020/12/19 01:32:09;;;;;;;14.02;6.43;;;10.40;67.60;;;;;;6260693;28;20051;-71
2020/12/19 01:35:10;;;;;;;12.20;6.10;;;10.40;66.40;;;;;;6262344;28;20112;-71
2020/12/19 01:38:11;;;;;;;17.45;6.13;;;10.40;66.10;;;;;;6247523;28;20358;-71
2020/12/19 01:41:13;;;;;;;14.68;5.45;;;10.40;65.80;;;;;;6257632;28;20041;-71
2020/12/19 01:44:14;;;;;;;14.27;6.28;;;10.40;66.40;;;;;;6251683;28;20032;-71
2020/12/19 01:47:18;;;;;;;11.45;5.47;;;10.40;65.40;;;;;;6243167;28;20056;-73
2020/12/19 01:50:19;;;;;;;15.75;6.20;;;10.50;65.30;;;;;;6260874;28;20041;-73
2020/12/19 01:53:20;;;;;;;17.33;7.30;;;10.50;65.30;;;;;;6244688;28;20112;-72
2020/12/19 01:56:36;;;;;;;19.70;7.68;;;10.40;65.00;;;;;;6261587;28;20059;-71
2020/12/19 01:59:37;;;;;;;15.65;7.35;;;10.40;64.90;;;;;;6260538;28;20485;-71
2020/12/19 02:02:38;;;;;;;14.30;7.38;;;10.30;64.80;;;;;;6261550;28;20033;-71
2020/12/19 02:05:41;;;;;;;13.82;6.80;;;10.30;64.90;;;;;;6260765;28;20034;-70
2020/12/19 02:08:42;;;;;;;19.02;6.90;;;10.30;65.00;;;;;;6258791;28;20037;-71
2020/12/19 02:11:44;;;;;;;12.88;6.07;;;10.30;64.90;;;;;;6258976;28;20379;-71
2020/12/19 02:14:45;;;;;;;15.35;6.18;;;10.20;64.70;;;;;;6259279;28;20108;-71
2020/12/19 02:17:46;;;;;;;13.82;6.30;;;10.20;64.70;;;;;;6259021;28;20048;-71
2020/12/19 02:20:48;;;;;;;11.38;6.00;;;10.10;64.70;;;;;;6242999;28;20528;-71
2020/12/19 02:23:49;;;;;;;13.98;6.07;;;10.00;64.70;;;;;;6256804;28;20042;-71
2020/12/19 02:26:51;;;;;;;15.75;6.70;;;10.00;64.90;;;;;;6258051;28;20358;-71
2020/12/19 02:29:52;;;;;;;12.90;5.75;;;10.00;65.00;;;;;;6261355;28;20067;-71
2020/12/19 02:32:53;;;;;;;12.23;5.90;;;10.00;65.00;;;;;;6261381;28;20034;-71
2020/12/19 02:35:54;;;;;;;11.50;5.35;;;10.00;65.00;;;;;;6255226;28;20668;-70
2020/12/19 02:38:55;;;;;;;10.95;5.53;;;10.00;64.90;;;;;;6233782;28;20037;-70
2020/12/19 02:41:57;;;;;;;11.63;5.57;;;10.00;64.90;;;;;;6223646;28;20546;-70
2020/12/19 02:44:58;;;;;;;12.98;5.30;;;10.00;64.80;;;;;;6231922;28;20085;-70
2020/12/19 02:48:00;;;;;;;11.65;4.97;;;10.00;64.80;;;;;;6253724;28;20083;-71
2020/12/19 02:51:02;;;;;;;9.65;5.35;;;10.00;64.80;;;;;;6247931;28;20033;-71
2020/12/19 02:54:04;;;;;;;16.10;5.78;;;10.00;64.80;;;;;;6258399;28;20037;-71
2020/12/19 02:57:05;;;;;;;10.15;5.20;;;10.00;64.80;;;;;;6257397;28;20095;-71
2020/12/19 03:00:06;;;;;;;12.68;5.05;;;10.00;64.70;;;;;;6259194;28;20461;-72
2020/12/19 03:03:07;;;;;;;11.60;4.80;;;10.10;64.60;;;;;;6261236;28;20041;-71
2020/12/19 03:06:08;;;;;;;8.85;4.55;;;10.10;64.40;;;;;;6244228;28;20038;-72
2020/12/19 03:09:09;;;;;;;12.68;5.20;;;10.10;64.30;;;;;;6258288;28;20502;-71
2020/12/19 03:12:10;;;;;;;11.60;5.07;;;10.20;64.10;;;;;;6260195;28;20370;-72
2020/12/19 03:15:11;;;;;;;13.07;5.13;;;10.20;64.00;;;;;;6243692;28;20064;-70
2020/12/19 03:18:12;;;;;;;9.63;5.15;;;10.20;63.80;;;;;;6249249;28;20036;-70
2020/12/19 03:21:13;;;;;;;11.38;5.38;;;10.30;63.60;;;;;;6259642;28;20541;-71
2020/12/19 03:24:14;;;;;;;13.35;4.50;;;10.30;63.50;;;;;;6256651;28;20041;-71
2020/12/19 03:27:15;;;;;;;12.73;4.88;;;10.30;63.40;;;;;;6256466;28;20048;-71
2020/12/19 03:30:16;;;;;;;11.60;5.38;;;10.30;63.30;;;;;;6256001;28;20405;-71
2020/12/19 03:37:38;;;;;;;11.73;4.15;;;10.30;63.20;;;;;;6253874;28;20041;-71
2020/12/19 03:40:39;;;;;;;13.52;5.70;;;10.30;63.20;;;;;;6251073;28;20044;-71
2020/12/19 03:43:40;;;;;;;10.38;4.55;;;10.20;63.00;;;;;;6254651;28;20040;-71
2020/12/19 03:46:41;;;;;;;17.90;5.43;;;10.30;63.10;;;;;;6243274;28;20132;-72
2020/12/19 03:49:42;;;;;;;10.93;4.50;;;10.30;62.90;;;;;;6245239;28;20045;-72
2020/12/19 03:52:43;;;;;;;9.90;4.78;;;10.30;62.60;;;;;;6225571;28;20034;-72
2020/12/19 03:55:43;;;;;;;10.75;4.75;;;10.20;62.30;;;;;;6227200;28;20034;-71
2020/12/19 03:58:44;;;;;;;10.50;4.90;;;10.20;62.40;;;;;;6225760;28;20033;-71
2020/12/19 04:01:46;;;;;;;12.50;4.75;;;10.20;62.50;;;;;;6214142;28;20124;-71
2020/12/19 04:04:47;;;;;;;9.07;4.35;;;10.20;62.40;;;;;;6229950;28;20366;-71
2020/12/19 04:07:47;;;;;;;16.52;5.60;;;10.10;62.20;;;;;;6224839;28;20052;-71
2020/12/19 04:10:48;;;;;;;10.73;5.47;;;10.10;62.20;;;;;;6227658;28;20037;-70
2020/12/19 04:13:49;;;;;;;14.57;4.75;;;10.10;62.20;;;;;;6217063;28;20060;-71
2020/12/19 04:16:50;;;;;;;12.77;5.38;;;10.10;62.10;;;;;;6221339;28;20042;-71
2020/12/19 04:19:51;;;;;;;12.00;4.05;;;10.10;62.10;;;;;;6227871;28;20042;-71
2020/12/19 04:22:52;;;;;;;13.32;5.30;;;10.00;62.90;;;;;;6230315;28;20041;-71
2020/12/19 04:25:53;;;;;;;12.65;4.68;;;9.90;62.10;;;;;;6226303;28;20083;-71
2020/12/19 04:28:54;;;;;;;11.88;3.92;;;9.90;62.20;;;;;;6224326;28;20180;-71
2020/12/19 04:31:55;;;;;;;9.82;4.55;;;9.80;62.10;;;;;;6231019;28;20033;-71
2020/12/19 04:34:56;;;;;;;11.65;4.13;;;9.70;62.30;;;;;;6230610;28;20033;-71
2020/12/19 04:37:57;;;;;;;12.45;4.70;;;9.70;62.50;;;;;;6241250;28;20426;-70
2020/12/19 04:40:59;;;;;;;11.35;4.70;;;9.60;62.40;;;;;;6260323;28;20118;-71
2020/12/19 04:44:02;;;;;;;10.10;4.32;;;9.60;62.40;;;;;;6235894;28;20102;-71
2020/12/19 04:47:02;;;;;;;8.32;4.45;;;9.60;62.40;;;;;;6245407;28;20045;-70
2020/12/19 04:50:04;;;;;;;7.57;3.78;;;9.60;62.40;;;;;;6229900;28;20052;-71
2020/12/19 04:53:16;;;;;;;8.07;4.00;;;9.60;62.40;;;;;;6228730;28;20041;-70
2020/12/19 04:56:18;;;;;;;7.95;4.28;;;9.60;62.60;;;;;;6258152;28;20721;-70
2020/12/19 04:59:18;;;;;;;7.32;3.53;;;9.50;62.60;;;;;;6257747;28;20029;-72
2020/12/19 05:02:19;;;;;;;8.63;4.35;;;9.50;62.70;;;;;;6251208;28;20413;-70
2020/12/19 05:05:20;;;;;;;10.18;4.32;;;9.40;62.80;;;;;;6233391;28;20046;-70
2020/12/19 05:08:21;;;;;;;7.40;3.15;;;9.40;62.80;;;;;;6233557;28;20366;-71
2020/12/19 05:11:25;;;;;;;12.13;4.57;;;9.40;62.90;;;;;;6232795;28;20030;-71
2020/12/19 05:14:31;;;;;;;7.13;3.72;;;9.40;62.90;;;;;;6220862;28;20042;-71
2020/12/19 05:17:31;;;;;;;7.47;3.78;;;9.50;63.00;;;;;;6240383;28;20037;-71
2020/12/19 05:20:33;;;;;;;9.15;3.95;;;9.50;62.90;;;;;;6256746;28;20075;-71
2020/12/19 05:23:39;;;;;;;8.40;4.43;;;9.40;62.80;;;;;;6251764;28;20041;-71
2020/12/19 05:26:40;;;;;;;12.88;5.10;;;9.40;62.90;;;;;;6241807;28;20033;-72
2020/12/19 05:29:40;;;;;;;11.30;5.07;;;9.40;63.00;;;;;;6271024;28;20121;-72
2020/12/19 05:32:47;;;;;;;10.85;4.60;;;9.40;63.10;;;;;;6261368;28;20041;-71
2020/12/19 05:35:48;;;;;;;12.38;5.55;;;9.30;63.10;;;;;;6220618;28;20107;-70
2020/12/19 05:38:48;;;;;;;12.90;5.05;;;9.30;63.20;;;;;;6256706;28;20463;-70
2020/12/19 05:41:50;;;;;;;12.98;5.55;;;9.30;63.30;;;;;;6248681;28;20098;-70
2020/12/19 05:44:51;;;;;;;9.70;5.07;;;9.40;63.30;;;;;;6257406;28;20128;-70
2020/12/19 05:47:52;;;;;;;12.43;5.07;;;9.50;63.30;;;;;;6260001;28;20373;-70
2020/12/19 05:50:53;;;;;;;12.05;4.93;;;9.40;63.10;;;;;;6233968;28;20095;-71
2020/12/19 05:54:05;;;;;;;14.65;5.90;;;9.40;63.10;;;;;;6218017;28;20478;-71
2020/12/19 05:57:12;;;;;;;9.90;4.95;;;9.40;63.20;;;;;;6257982;28;20048;-72
2020/12/19 06:00:17;;;;;;;13.20;5.63;;;9.40;63.10;;;;;;6251140;28;20030;-71
2020/12/19 06:03:21;;;;;;;7.95;4.28;;;9.40;63.30;;;;;;6245247;28;20046;-71
2020/12/19 06:06:25;;;;;;;13.90;5.20;;;9.50;63.20;;;;;;6231192;28;20049;-71
2020/12/19 06:09:26;;;;;;;11.23;5.07;;;9.40;63.10;;;;;;6229501;28;20822;-71
2020/12/19 06:12:40;;;;;;;13.80;5.40;;;9.40;63.30;;;;;;6232851;28;20045;-70
2020/12/19 06:15:59;;;;;;;8.27;4.43;;;9.40;63.30;;;;;;6232275;28;20034;-70
2020/12/19 06:19:10;;;;;;;12.25;5.60;;;9.40;63.40;;;;;;6231727;28;20172;-70
2020/12/19 06:22:11;;;;;;;10.32;5.07;;;9.40;63.50;;;;;;6256925;28;20029;-70
2020/12/19 06:25:12;;;;;;;13.07;5.38;;;9.30;63.60;;;;;;6254242;28;20033;-70
2020/12/19 06:28:39;;;;;;;11.85;5.70;;;9.30;63.80;;;;;;6257496;28;20091;-70
2020/12/19 06:31:40;;;;;;;9.77;4.32;;;9.30;63.80;;;;;;6236860;28;20038;-71
2020/12/19 06:34:40;;;;;;;11.25;4.60;;;9.30;63.80;;;;;;6257253;28;20458;-71
2020/12/19 06:37:42;;;;;;;12.50;5.90;;;9.30;63.90;;;;;;6243150;28;20088;-72
2020/12/19 06:40:43;;;;;;;10.20;5.20;;;9.20;64.20;;;;;;6256081;28;20037;-72
2020/12/19 06:44:04;;;;;;;10.50;5.28;;;9.20;64.30;;;;;;6251595;28;20119;-70
2020/12/19 06:47:18;;;;;;;16.38;5.93;;;9.10;64.40;;;;;;6241080;28;20037;-71
2020/12/19 06:50:20;;;;;;;6.28;3.97;;;9.10;64.40;;;;;;6260555;28;20083;-72
2020/12/19 06:53:22;;;;;;;9.73;4.80;;;9.20;64.40;;;;;;6255547;28;20033;-70
2020/12/19 06:56:27;;;;;;;9.45;5.03;;;9.20;64.30;;;;;;6257433;28;20034;-71
2020/12/19 06:59:29;;;;;;;12.68;5.05;;;9.10;64.30;;;;;;6242039;28;20387;-71
2020/12/19 07:02:30;;;;;;;12.05;5.88;;;9.20;64.40;;;;;;6242462;28;20041;-71
2020/12/19 07:05:33;;;;;;;10.00;4.60;;;9.10;65.30;;;;;;6250892;28;20029;-71
2020/12/19 07:08:35;;;;;;;10.98;5.47;;;9.10;64.60;;;;;;6253834;28;20346;-72
2020/12/19 07:11:41;;;;;;;11.15;5.05;;;9.10;64.70;;;;;;6238974;28;20033;-73
2020/12/19 07:14:42;;;;;;;9.35;4.63;;;9.00;64.80;;;;;;6261252;28;20025;-72
2020/12/19 07:17:46;;;;;;;12.50;6.18;;;9.00;64.90;;;;;;6257312;28;20422;-70
2020/12/19 07:20:59;;;;;;;13.40;5.80;;;9.10;65.20;;;;;;6239827;28;20520;-72
2020/12/19 07:24:00;;;;;;;13.25;6.05;;;9.00;65.20;;;;;;6254005;28;20049;-71
2020/12/19 07:27:03;;;;;;;11.50;5.63;;;9.00;65.30;;;;;;6251211;28;20029;-72
2020/12/19 07:30:04;;;;;;;16.95;6.78;;;9.00;65.40;;;;;;6230453;28;20060;-72
2020/12/19 07:33:05;;;;;;;11.60;5.60;;;9.00;65.50;;;;;;6241567;28;20025;-72
2020/12/19 07:36:06;;;;;;;12.98;5.78;;;9.00;65.50;;;;;;6251025;28;20049;-72
2020/12/19 07:39:09;;;;;;;10.02;4.75;;;9.00;65.50;;;;;;6241106;28;20108;-72
2020/12/19 07:42:10;;;;;;;13.90;5.70;;;9.00;65.50;;;;;;6251961;28;20044;-73
2020/12/19 07:45:16;;;;;;;12.52;5.53;;;9.00;65.50;;;;;;6256623;28;20049;-75
2020/12/19 07:48:17;;;;;;;18.88;6.47;;;9.00;65.70;;;;;;6253368;28;20041;-74
2020/12/19 07:51:22;;;;;;;11.90;6.15;;;9.00;65.90;;;;;;6244180;28;20048;-74
2020/12/19 07:54:24;;;;;;;11.60;5.57;;;9.00;65.70;;;;;;6255920;28;20095;-74
2020/12/19 07:57:30;;;;;;;15.43;6.82;;;9.00;65.70;;;;;;6254189;28;20096;-74
2020/12/19 08:00:31;;;;;;;13.77;6.50;;;9.10;65.80;;;;;;6262907;28;20340;-72
2020/12/19 08:03:32;;;;;;;15.80;6.78;;;9.10;65.90;;;;;;6241685;28;20037;-74
2020/12/19 08:06:45;;;;;;;18.20;7.47;;;9.00;65.90;;;;;;6229974;28;20041;-73
2020/12/19 08:09:46;;;;;;;18.55;7.03;;;9.00;66.10;;;;;;6237445;28;20060;-73
2020/12/19 08:12:48;;;;;;;15.95;6.30;;;9.00;66.30;;;;;;6241374;28;20399;-72
2020/12/19 08:15:49;;;;;;;17.88;6.82;;;9.10;66.20;;;;;;6252284;28;20037;-72
2020/12/19 08:18:50;;;;;;;20.15;7.55;;;9.10;66.30;;;;;;6244930;28;20045;-73
2020/12/19 08:21:59;;;;;;;18.15;7.00;;;9.20;66.40;;;;;;6241103;28;20032;-73
2020/12/19 08:25:00;;;;;;;18.88;7.68;;;9.20;66.40;;;;;;6256520;28;20037;-72
2020/12/19 08:28:02;;;;;;;15.52;6.32;;;9.30;66.30;;;;;;6253524;28;20038;-72
2020/12/19 08:31:17;;;;;;;16.60;7.45;;;9.30;66.20;;;;;;6239721;28;20526;-72
2020/12/19 08:34:19;;;;;;;16.75;7.63;;;9.40;66.20;;;;;;6219951;28;20044;-72
2020/12/19 08:37:22;;;;;;;17.25;6.22;;;9.40;66.10;;;;;;6249387;28;20034;-72
2020/12/19 08:40:23;;;;;;;16.38;6.57;;;9.50;66.10;;;;;;6250785;28;20123;-71
2020/12/19 08:43:32;;;;;;;15.73;7.53;;;9.50;66.00;;;;;;6213797;28;20443;-73
2020/12/19 08:46:33;;;;;;;15.23;6.45;;;9.50;66.00;;;;;;6250456;28;20049;-73
2020/12/19 08:49:34;;;;;;;15.05;6.85;;;9.50;66.00;;;;;;6252920;28;20049;-73
2020/12/19 08:52:38;;;;;;;16.35;7.38;;;9.60;65.90;;;;;;6224088;28;20037;-72
2020/12/19 08:55:40;;;;;;;20.90;7.70;;;9.60;65.70;;;;;;6257778;28;20033;-72
2020/12/19 08:58:42;;;;;;;18.38;7.40;;;9.70;65.60;;;;;;6261182;28;20052;-72
2020/12/19 09:01:42;;;;;;;19.65;8.07;;;9.80;65.40;;;;;;6242752;28;20150;-72
2020/12/19 09:04:49;;;;;;;21.45;8.07;;;10.00;65.40;;;;;;6253339;28;20034;-73
2020/12/19 09:07:56;;;;;;;21.60;9.10;;;10.10;65.20;;;;;;6252645;28;20041;-72
2020/12/19 09:10:58;;;;;;;17.60;7.93;;;10.20;65.00;;;;;;6259007;28;20040;-73
2020/12/19 09:14:06;;;;;;;20.27;7.72;;;10.20;65.00;;;;;;6249375;28;20116;-74
2020/12/19 09:17:07;;;;;;;28.80;10.70;;;10.20;65.00;;;;;;6256067;28;20045;-73
2020/12/19 09:20:08;;;;;;;24.67;9.90;;;10.30;64.90;;;;;;6256884;28;20036;-72
2020/12/19 09:23:10;;;;;;;22.00;9.98;;;10.40;64.90;;;;;;6254383;28;20123;-73
2020/12/19 09:26:11;;;;;;;21.30;8.60;;;10.50;64.60;;;;;;6235103;28;20450;-73
2020/12/19 09:29:13;;;;;;;24.85;9.27;;;10.50;64.60;;;;;;6260751;28;20041;-72
2020/12/19 09:32:14;;;;;;;17.98;7.63;;;10.60;64.40;;;;;;6263292;28;20106;-73
2020/12/19 09:35:15;;;;;;;23.13;8.20;;;10.60;64.10;;;;;;6241300;28;20053;-73
2020/12/19 09:38:17;;;;;;;20.05;6.80;;;10.70;64.00;;;;;;6226738;28;20045;-72
2020/12/19 09:41:18;;;;;;;20.95;8.88;;;10.70;64.00;;;;;;6247749;28;20451;-72
2020/12/19 09:44:19;;;;;;;18.02;8.23;;;10.70;63.90;;;;;;6245523;28;20124;-72
2020/12/19 09:47:20;;;;;;;23.67;9.15;;;10.80;63.90;;;;;;6260954;28;20047;-73
2020/12/19 09:50:22;;;;;;;22.85;9.73;;;10.90;63.80;;;;;;6248577;28;20051;-73
2020/12/19 09:53:23;;;;;;;26.90;11.60;;;11.00;63.60;;;;;;6239277;28;20034;-73
2020/12/19 09:56:24;;;;;;;22.48;8.65;;;11.00;63.20;;;;;;6238556;28;20052;-72
2020/12/19 09:59:25;;;;;;;20.73;8.65;;;11.10;63.20;;;;;;6251403;28;20040;-72
2020/12/19 10:02:26;;;;;;;21.67;9.00;;;11.10;63.20;;;;;;6221037;28;20038;-72
2020/12/19 10:05:28;;;;;;;21.45;10.10;;;11.30;63.10;;;;;;6237062;28;20041;-72
2020/12/19 10:08:29;;;;;;;35.83;11.60;;;11.50;62.50;;;;;;6250206;28;20033;-71
2020/12/19 10:11:30;;;;;;;29.30;12.15;;;11.60;61.60;;;;;;6250966;28;20470;-72
2020/12/19 10:14:33;;;;;;;20.38;9.23;;;11.70;61.20;;;;;;6246030;28;20049;-72
2020/12/19 10:17:34;;;;;;;22.77;8.48;;;11.90;60.90;;;;;;6258341;28;20064;-73
2020/12/19 10:20:35;;;;;;;40.33;15.32;;;12.00;60.50;;;;;;6251610;28;20378;-71
2020/12/19 10:23:36;;;;;;;41.92;14.98;;;12.20;59.80;;;;;;6254744;28;20037;-72
2020/12/19 10:26:37;;;;;;;28.98;11.60;;;12.30;59.40;;;;;;6255537;28;20052;-72
2020/12/19 10:29:38;;;;;;;29.60;11.82;;;12.40;59.30;;;;;;6251129;28;20065;-72
2020/12/19 10:32:39;;;;;;;36.45;13.90;;;12.60;59.20;;;;;;6242305;28;20059;-72
2020/12/19 10:35:39;;;;;;;37.30;13.70;;;12.70;58.50;;;;;;6250498;28;20503;-72
2020/12/19 10:38:40;;;;;;;27.30;9.48;;;12.80;58.40;;;;;;6255149;28;20068;-72
2020/12/19 10:41:41;;;;;;;24.23;9.60;;;12.80;58.30;;;;;;6231271;28;20326;-72
2020/12/19 10:44:42;;;;;;;20.17;8.70;;;12.90;58.20;;;;;;6240199;28;20065;-71
2020/12/19 10:47:43;;;;;;;21.70;8.63;;;12.90;58.00;;;;;;6252421;28;20435;-72
2020/12/19 10:50:47;;;;;;;26.58;9.48;;;13.10;58.00;;;;;;6251507;28;20041;-80
2020/12/19 10:53:48;;;;;;;14.57;6.95;;;13.10;57.50;;;;;;6250725;28;20463;-77
2020/12/19 10:56:53;;;;;;;19.30;8.65;;;13.20;57.40;;;;;;6254800;28;20036;-72
2020/12/19 10:59:55;;;;;;;36.13;14.40;;;13.30;57.20;;;;;;6253152;28;20099;-72
2020/12/19 11:02:55;;;;;;;51.95;19.80;;;13.30;57.20;;;;;;6232582;28;20475;-75
2020/12/19 11:05:56;;;;;;;23.05;10.13;;;13.40;57.00;;;;;;6229540;28;20034;-73
2020/12/19 11:08:57;;;;;;;58.58;21.35;;;13.40;57.00;;;;;;6228962;28;20111;-73
2020/12/19 11:12:02;;;;;;;40.78;17.02;;;13.50;57.10;;;;;;6228832;28;20029;-72
2020/12/19 11:15:03;;;;;;;55.17;20.60;;;13.50;56.80;;;;;;6229486;28;20036;-73
2020/12/19 11:18:04;;;;;;;56.05;22.20;;;13.50;56.90;;;;;;6257208;28;20395;-73
2020/12/19 11:21:05;;;;;;;50.00;20.88;;;13.50;57.00;;;;;;6240214;28;20052;-73
2020/12/19 11:24:07;;;;;;;57.53;19.60;;;13.70;56.70;;;;;;6259179;28;20087;-72
2020/12/19 11:27:07;;;;;;;62.17;22.05;;;14.10;55.50;;;;;;6253720;28;20038;-73
2020/12/19 11:30:09;;;;;;;47.60;16.48;;;14.10;55.50;;;;;;6257880;28;20120;-72
2020/12/19 11:33:10;;;;;;;22.45;11.02;;;14.10;55.60;;;;;;6235789;28;20046;-74
2020/12/19 11:36:12;;;;;;;19.88;8.00;;;14.20;55.40;;;;;;6245912;28;20500;-72
2020/12/19 11:39:14;;;;;;;42.88;15.93;;;14.20;55.00;;;;;;6216277;28;20033;-72
2020/12/19 11:42:14;;;;;;;29.23;10.98;;;14.30;54.70;;;;;;6223645;28;20033;-72
2020/12/19 11:45:16;;;;;;;37.63;15.27;;;14.40;54.50;;;;;;6253993;28;20041;-71
2020/12/19 11:48:17;;;;;;;32.22;14.15;;;14.50;53.80;;;;;;6251403;28;20232;-72
2020/12/19 11:51:28;;;;;;;30.13;12.05;;;14.60;53.70;;;;;;6237710;28;20038;-72
2020/12/19 11:54:30;;;;;;;28.77;11.93;;;14.60;53.60;;;;;;6251310;28;20113;-71
2020/12/19 11:57:31;;;;;;;44.55;17.38;;;14.70;53.40;;;;;;6235630;28;20106;-71
2020/12/19 12:00:32;;;;;;;24.40;11.65;;;14.80;52.80;;;;;;6205898;28;20045;-73
2020/12/19 12:03:33;;;;;;;33.42;14.70;;;14.80;52.80;;;;;;6231239;28;20443;-71
2020/12/19 12:06:35;;;;;;;19.58;9.30;;;14.80;52.60;;;;;;6222807;28;20022;-70
2020/12/19 12:09:35;;;;;;;13.32;6.30;;;14.90;52.90;;;;;;6230043;28;20056;-71
2020/12/19 12:12:37;;;;;;;13.82;7.05;;;14.90;52.70;;;;;;6244594;28;20119;-71
2020/12/19 12:15:38;;;;;;;27.52;11.57;;;14.90;52.50;;;;;;6230721;28;20038;-71
2020/12/19 12:18:39;;;;;;;14.45;7.18;;;14.90;52.90;;;;;;6230804;28;20040;-71
2020/12/19 12:21:41;;;;;;;16.42;7.28;;;15.00;53.10;;;;;;6232828;28;20092;-72
2020/12/19 12:24:43;;;;;;;23.13;9.55;;;15.00;52.70;;;;;;6231623;28;20088;-71
2020/12/19 12:27:44;;;;;;;14.65;6.68;;;15.00;52.80;;;;;;6230905;28;20046;-71
2020/12/19 12:30:45;;;;;;;16.83;6.97;;;15.10;52.40;;;;;;6231191;28;20431;-71
2020/12/19 12:33:46;;;;;;;19.88;8.43;;;15.10;52.70;;;;;;6229501;28;20057;-72
2020/12/19 12:36:47;;;;;;;18.63;7.20;;;15.10;52.70;;;;;;6226452;28;20046;-72
2020/12/19 12:39:48;;;;;;;18.38;7.88;;;15.10;52.70;;;;;;6228999;28;20131;-72
2020/12/19 12:42:49;;;;;;;15.63;6.85;;;15.10;52.50;;;;;;6207220;28;20034;-73
2020/12/19 12:45:50;;;;;;;15.80;6.82;;;15.10;52.70;;;;;;6225456;28;20050;-71
2020/12/19 12:48:51;;;;;;;14.32;6.93;;;15.10;52.70;;;;;;6220474;28;20062;-73
2020/12/19 12:51:52;;;;;;;20.20;8.23;;;15.10;52.60;;;;;;6224598;28;20030;-74
2020/12/19 12:54:54;;;;;;;46.92;20.80;;;15.00;52.60;;;;;;6227128;28;20041;-74
2020/12/19 12:57:55;;;;;;;29.02;12.38;;;15.10;52.70;;;;;;6253953;28;20468;-73
2020/12/19 13:00:57;;;;;;;18.50;9.73;;;15.10;52.80;;;;;;6250838;28;20033;-73
2020/12/19 13:03:58;;;;;;;18.95;8.23;;;15.20;52.90;;;;;;6210695;28;20065;-75
2020/12/19 13:06:59;;;;;;;42.75;16.88;;;15.20;52.90;;;;;;6228236;28;20435;-73
2020/12/19 13:10:00;;;;;;;23.30;10.82;;;15.20;52.80;;;;;;6211343;28;20048;-73
2020/12/19 13:13:02;;;;;;;24.33;11.55;;;15.20;52.70;;;;;;6223563;28;20038;-72
2020/12/19 13:16:05;;;;;;;46.47;18.15;;;15.20;52.70;;;;;;6221943;28;20160;-75
2020/12/19 13:19:07;;;;;;;24.85;9.90;;;15.30;52.70;;;;;;6231485;28;20374;-73
2020/12/19 13:22:08;;;;;;;32.22;12.00;;;15.30;52.50;;;;;;6232628;28;20041;-74
2020/12/19 13:25:09;;;;;;;24.73;10.38;;;15.30;52.40;;;;;;6231032;28;20038;-72
2020/12/19 13:28:10;;;;;;;14.77;7.45;;;15.40;52.50;;;;;;6232261;28;20034;-72
2020/12/19 13:31:12;;;;;;;13.95;5.38;;;15.40;52.60;;;;;;6232915;28;20255;-73
2020/12/19 13:34:13;;;;;;;14.13;6.90;;;15.50;52.60;;;;;;6215086;28;20115;-72
2020/12/19 13:37:15;;;;;;;13.20;6.03;;;15.60;52.60;;;;;;6227408;28;20041;-73
2020/12/19 13:40:16;;;;;;;13.75;6.03;;;15.70;52.60;;;;;;6222040;28;20510;-72
2020/12/19 13:43:17;;;;;;;14.23;6.25;;;15.70;52.50;;;;;;6233072;28;20050;-72
2020/12/19 13:46:18;;;;;;;12.05;6.10;;;15.80;52.60;;;;;;6235081;28;20111;-73
2020/12/19 13:49:19;;;;;;;12.48;5.68;;;15.80;52.60;;;;;;6232951;28;20474;-73
2020/12/19 13:52:20;;;;;;;12.32;6.18;;;15.80;52.50;;;;;;6219533;28;20379;-73
2020/12/19 13:55:21;;;;;;;12.10;6.43;;;15.90;52.60;;;;;;6244404;28;20041;-72
2020/12/19 13:58:22;;;;;;;11.65;5.70;;;15.70;52.40;;;;;;6253103;28;20092;-73
2020/12/19 14:01:31;;;;;;;15.95;7.47;;;16.00;52.50;;;;;;6244669;28;20045;-72
2020/12/19 14:04:33;;;;;;;15.60;6.15;;;16.00;52.50;;;;;;6241992;28;20038;-72
2020/12/19 14:07:34;;;;;;;13.52;6.57;;;16.00;51.90;;;;;;6228943;28;20033;-75
2020/12/19 14:10:38;;;;;;;18.77;6.40;;;16.00;51.70;;;;;;6233751;28;20029;-71
2020/12/19 14:13:40;;;;;;;15.20;6.35;;;16.00;51.90;;;;;;6225743;28;20144;-71
2020/12/19 14:16:41;;;;;;;12.93;6.07;;;16.10;52.00;;;;;;6209464;28;20421;-73
2020/12/19 14:19:41;;;;;;;13.52;5.22;;;16.10;52.00;;;;;;6228505;28;20044;-73
2020/12/19 14:22:46;;;;;;;12.35;5.75;;;16.00;51.90;;;;;;6229474;28;20073;-72
2020/12/19 14:25:47;;;;;;;16.98;7.72;;;16.00;51.90;;;;;;6223357;28;20320;-72
2020/12/19 14:28:49;;;;;;;20.23;7.55;;;16.00;52.00;;;;;;6223617;28;20375;-72
2020/12/19 14:31:52;;;;;;;33.08;12.80;;;15.90;52.10;;;;;;6229650;28;20072;-73
2020/12/19 14:34:52;;;;;;;19.30;8.25;;;15.90;52.10;;;;;;6235467;28;20030;-71
2020/12/19 14:37:53;;;;;;;16.85;6.78;;;15.80;52.00;;;;;;6231183;28;20034;-72
2020/12/19 14:40:54;;;;;;;16.15;6.35;;;15.80;52.30;;;;;;6231940;28;20093;-72
2020/12/19 14:43:56;;;;;;;13.60;6.18;;;15.70;52.40;;;;;;6231537;28;20476;-73
2020/12/19 14:46:58;;;;;;;17.30;6.88;;;15.70;52.40;;;;;;6232625;28;20500;-70
2020/12/19 14:49:59;;;;;;;18.35;6.93;;;15.70;52.60;;;;;;6225665;28;20033;-70
2020/12/19 14:53:01;;;;;;;21.17;9.40;;;15.70;52.70;;;;;;6230793;28;20033;-71
2020/12/19 14:56:02;;;;;;;51.00;15.27;;;15.70;52.80;;;;;;6205355;28;20990;-71
2020/12/19 14:59:03;;;;;;;23.17;8.43;;;15.70;53.00;;;;;;6228399;28;20463;-73
2020/12/19 15:02:04;;;;;;;22.85;9.38;;;15.70;53.10;;;;;;6233759;28;20067;-72
2020/12/19 15:05:04;;;;;;;27.58;12.07;;;15.60;53.00;;;;;;6242084;28;20045;-73
2020/12/19 15:08:05;;;;;;;23.52;10.57;;;15.60;53.20;;;;;;6249924;28;20117;-72
2020/12/19 15:11:07;;;;;;;20.65;8.65;;;15.60;53.20;;;;;;6255166;28;20037;-72
2020/12/19 15:14:08;;;;;;;13.40;6.10;;;15.60;53.20;;;;;;6249062;28;20029;-70
2020/12/19 15:17:09;;;;;;;14.90;6.95;;;15.60;53.30;;;;;;6250749;28;21274;-69
2020/12/19 15:20:10;;;;;;;15.93;7.22;;;15.60;53.10;;;;;;6241707;28;20092;-77
2020/12/19 15:23:11;;;;;;;16.17;6.45;;;15.60;53.20;;;;;;6238671;28;20033;-72
2020/12/19 15:26:12;;;;;;;20.50;8.63;;;15.50;53.20;;;;;;6239357;28;20044;-70
2020/12/19 15:29:13;;;;;;;20.90;9.70;;;15.40;53.30;;;;;;6251999;28;20021;-71
2020/12/19 15:32:14;;;;;;;17.48;7.88;;;15.40;53.50;;;;;;6250768;28;20359;-72
2020/12/19 15:35:15;;;;;;;25.52;10.23;;;15.30;53.70;;;;;;6225326;28;20045;-72
2020/12/19 15:38:16;;;;;;;36.47;15.60;;;15.20;53.90;;;;;;6233085;28;20175;-72
2020/12/19 15:41:17;;;;;;;19.95;9.70;;;15.20;54.10;;;;;;6251196;28;20757;-72